Time;durP1;ratioP1;P1;durP2;ratioP2;P2;SDS_P1;SDS_P2;PMS_P1;PMS_P2;Temp;Humidity;BMP_temperature;BMP_pressure;BME280_temperature;BME280_humidity;BME280_pressure;Samples;Min_cycle;Max_cycle;Signal;HPM_P1;HPM_P2
2023/03/17 00:02:25;;;;;;;0.83;0.83;;;;;;;5.86;72.47;95340.81;4389318;32;20176;-56
2023/03/17 00:04:51;;;;;;;0.90;0.90;;;;;;;5.77;71.80;95331.88;4373390;32;20244;-54
2023/03/17 00:07:17;;;;;;;1.33;0.80;;;;;;;5.72;72.13;95332.66;4390918;32;20184;-57
2023/03/17 00:09:42;;;;;;;1.33;1.30;;;;;;;5.67;72.80;95326.59;4376853;32;20197;-56
2023/03/17 00:12:11;;;;;;;0.73;0.73;;;;;;;5.68;72.35;95328.16;4387521;32;20198;-55
2023/03/17 00:14:37;;;;;;;0.53;0.53;;;;;;;5.77;72.45;95337.13;4389470;32;20201;-56
2023/03/17 00:17:02;;;;;;;0.97;0.97;;;;;;;5.73;72.50;95325.53;4371802;32;20314;-56
2023/03/17 00:19:31;;;;;;;0.70;0.70;;;;;;;5.90;72.06;95327.94;4389105;32;20199;-56
2023/03/17 00:21:57;;;;;;;0.63;0.63;;;;;;;5.67;72.74;95323.94;4387129;32;20208;-57
2023/03/17 00:24:23;;;;;;;1.00;0.90;;;;;;;5.66;73.01;95328.44;4372419;32;20345;-57
2023/03/17 00:26:48;;;;;;;1.03;1.03;;;;;;;5.62;72.99;95314.22;4375068;32;20284;-55
2023/03/17 00:29:15;;;;;;;1.73;1.63;;;;;;;5.64;73.00;95306.06;4382187;32;20192;-54
2023/03/17 00:31:42;;;;;;;0.20;0.20;;;;;;;5.86;71.90;95315.28;4386784;32;20231;-56
2023/03/17 00:34:14;;;;;;;1.40;1.40;;;;;;;5.59;72.76;95306.06;4378077;32;20336;-56
2023/03/17 00:36:41;;;;;;;1.10;0.70;;;;;;;5.64;72.69;95312.09;4388538;32;20311;-55
2023/03/17 00:39:12;;;;;;;0.50;0.50;;;;;;;5.67;72.92;95302.91;4388235;32;20342;-55
2023/03/17 00:41:38;;;;;;;1.17;1.17;;;;;;;5.77;72.62;95300.28;4370791;32;20369;-54
2023/03/17 00:44:03;;;;;;;2.30;1.00;;;;;;;5.72;72.65;95302.91;4387073;32;20292;-54
2023/03/17 00:46:36;;;;;;;0.47;0.47;;;;;;;5.81;72.34;95303.97;4376029;32;20226;-55
2023/03/17 00:49:12;;;;;;;0.80;0.80;;;;;;;5.59;73.00;95303.44;4383209;32;20184;-56
2023/03/17 00:51:38;;;;;;;0.77;0.77;;;;;;;5.77;72.59;95297.66;4378417;32;20277;-56
2023/03/17 00:54:03;;;;;;;1.17;1.17;;;;;;;5.67;72.87;95290.53;4375503;32;20277;-57
2023/03/17 00:56:33;;;;;;;1.90;1.03;;;;;;;5.63;73.04;95294.75;4379517;32;20310;-57
2023/03/17 00:58:59;;;;;;;0.80;0.80;;;;;;;5.59;72.76;95290.28;4377275;32;20263;-56
2023/03/17 01:01:24;;;;;;;0.90;0.90;;;;;;;5.54;73.25;95296.31;4382485;32;20296;-55
2023/03/17 01:03:50;;;;;;;5.17;1.50;;;;;;;5.42;73.76;95293.94;4393345;32;20298;-57
2023/03/17 01:06:15;;;;;;;0.60;0.60;;;;;;;5.54;73.22;95296.31;4378741;32;20238;-56
2023/03/17 01:08:41;;;;;;;1.43;1.33;;;;;;;5.60;73.55;95287.41;4383172;32;20203;-56
2023/03/17 01:11:17;;;;;;;0.50;0.50;;;;;;;5.42;74.17;95280.00;4380987;32;20188;-56
2023/03/17 01:13:43;;;;;;;0.97;0.97;;;;;;;5.59;73.55;95277.91;4374865;32;20223;-55
2023/03/17 01:16:10;;;;;;;0.67;0.67;;;;;;;5.41;74.16;95275.78;4384468;32;20275;-56
2023/03/17 01:18:35;;;;;;;1.17;0.97;;;;;;;5.48;73.96;95271.06;4388808;32;20288;-57
2023/03/17 01:21:01;;;;;;;0.67;0.67;;;;;;;5.51;73.90;95266.06;4391931;32;20276;-56
2023/03/17 01:23:26;;;;;;;0.70;0.70;;;;;;;5.39;74.59;95264.75;4389034;32;20184;-56
2023/03/17 01:25:51;;;;;;;0.70;0.70;;;;;;;5.46;73.69;95255.53;4373415;32;20193;-57
2023/03/17 01:28:18;;;;;;;1.00;1.00;;;;;;;5.32;74.63;95267.63;4390800;32;20188;-54
2023/03/17 01:30:45;;;;;;;2.03;1.93;;;;;;;5.60;73.59;95252.41;4387736;32;20215;-54
2023/03/17 01:33:13;;;;;;;0.80;0.80;;;;;;;5.44;73.97;95252.37;4373011;32;20287;-57
2023/03/17 01:35:40;;;;;;;1.43;1.33;;;;;;;5.45;74.00;95247.91;4377022;32;20303;-58
2023/03/17 01:38:06;;;;;;;1.00;0.60;;;;;;;4.99;75.51;95254.97;4380826;32;20276;-56
2023/03/17 01:40:35;;;;;;;0.60;0.60;;;;;;;5.25;75.05;95247.88;4379065;32;20330;-55
2023/03/17 01:43:09;;;;;;;1.00;1.00;;;;;;;4.99;76.00;95242.56;4393089;32;20181;-57
2023/03/17 01:46:08;;;;;;;0.80;0.80;;;;;;;4.83;76.44;95248.84;4392726;32;20284;-55
2023/03/17 01:48:45;;;;;;;0.43;0.43;;;;;;;4.89;76.65;95247.03;4392703;32;20280;-57
2023/03/17 01:51:21;;;;;;;1.03;1.03;;;;;;;4.94;76.14;95239.16;4384283;32;20338;-54
2023/03/17 01:53:49;;;;;;;0.63;0.63;;;;;;;5.06;75.78;95231.81;4372402;32;20288;-57
2023/03/17 01:56:15;;;;;;;1.33;1.33;;;;;;;4.95;76.09;95219.72;4371197;32;20287;-56
2023/03/17 01:58:43;;;;;;;0.83;0.83;;;;;;;4.94;76.46;95221.56;4389922;32;20312;-54
2023/03/17 02:01:09;;;;;;;0.67;0.67;;;;;;;4.91;76.12;95221.28;4393598;32;20197;-57
2023/03/17 02:03:35;;;;;;;1.43;1.33;;;;;;;4.69;77.02;95224.91;4393093;32;20317;-54
2023/03/17 02:06:01;;;;;;;2.00;1.53;;;;;;;4.76;77.16;95225.47;4390648;32;20288;-57
2023/03/17 02:08:26;;;;;;;0.57;0.57;;;;;;;4.73;77.37;95217.31;4387606;32;20224;-57
2023/03/17 02:10:53;;;;;;;0.73;0.73;;;;;;;4.71;77.62;95214.94;4378507;32;20284;-54
2023/03/17 02:13:18;;;;;;;0.70;0.70;;;;;;;4.89;77.19;95216.28;4342966;32;20190;-57
2023/03/17 02:15:49;;;;;;;0.53;0.53;;;;;;;4.68;77.83;95228.59;4380143;32;20276;-57
2023/03/17 02:18:18;;;;;;;0.77;0.77;;;;;;;4.63;77.58;95215.41;4387938;32;20192;-56
2023/03/17 02:20:43;;;;;;;1.00;1.00;;;;;;;4.69;77.75;95210.97;4390580;32;20289;-57
2023/03/17 02:23:09;;;;;;;0.93;0.93;;;;;;;4.76;77.19;95201.03;4384690;32;20315;-56
2023/03/17 02:25:35;;;;;;;0.40;0.40;;;;;;;4.56;77.97;95196.50;4392601;32;20188;-56
2023/03/17 02:28:12;;;;;;;1.13;1.10;;;;;;;4.62;77.86;95199.91;4372596;32;20311;-54
2023/03/17 02:30:38;;;;;;;0.83;0.83;;;;;;;4.55;78.51;95184.41;4370855;32;20339;-57
2023/03/17 02:33:03;;;;;;;0.70;0.70;;;;;;;4.54;78.41;95182.84;4369029;32;20287;-57
2023/03/17 02:35:29;;;;;;;0.50;0.50;;;;;;;4.56;78.36;95183.37;4375618;32;20274;-56
2023/03/17 02:37:55;;;;;;;2.10;0.70;;;;;;;4.56;78.41;95178.13;4377151;32;20192;-55
2023/03/17 02:40:21;;;;;;;0.50;0.50;;;;;;;4.42;78.58;95169.91;4391367;32;20243;-57
2023/03/17 02:42:47;;;;;;;0.97;0.97;;;;;;;4.59;78.06;95172.31;4391361;32;20214;-53
2023/03/17 02:45:13;;;;;;;0.70;0.70;;;;;;;4.89;76.93;95162.94;4391777;32;20288;-54
2023/03/17 02:47:38;;;;;;;0.70;0.70;;;;;;;4.72;77.84;95166.59;4374980;32;20198;-55
2023/03/17 02:50:07;;;;;;;0.60;0.60;;;;;;;4.64;78.24;95167.09;4391206;32;20199;-55
2023/03/17 02:52:33;;;;;;;1.40;1.33;;;;;;;4.53;78.52;95165.50;4382521;32;20192;-57
2023/03/17 02:54:58;;;;;;;1.33;1.33;;;;;;;4.50;78.36;95171.28;4391668;32;20355;-53
2023/03/17 02:57:23;;;;;;;1.60;0.93;;;;;;;4.46;78.53;95162.31;4377591;32;20197;-52
2023/03/17 02:59:49;;;;;;;0.97;0.97;;;;;;;4.47;78.63;95163.91;4365303;32;20181;-56
2023/03/17 03:02:15;;;;;;;1.77;1.67;;;;;;;4.36;79.24;95164.94;4376143;32;20199;-56
2023/03/17 03:04:42;;;;;;;1.93;1.33;;;;;;;4.35;78.92;95163.34;4387967;32;20242;-55
2023/03/17 03:07:08;;;;;;;1.37;1.37;;;;;;;4.36;78.96;95160.47;4387087;32;20284;-55
2023/03/17 03:09:34;;;;;;;0.80;0.80;;;;;;;4.62;78.19;95152.63;4383011;32;20362;-56
2023/03/17 03:11:59;;;;;;;2.47;1.53;;;;;;;4.61;78.04;95162.34;4391141;32;20280;-57
2023/03/17 03:14:25;;;;;;;1.43;1.40;;;;;;;4.59;78.20;95159.19;4387336;32;20207;-57
2023/03/17 03:16:51;;;;;;;1.13;1.13;;;;;;;4.68;77.79;95165.53;4376681;32;20251;-56
2023/03/17 03:19:17;;;;;;;0.90;0.90;;;;;;;4.58;78.37;95165.50;4375727;32;20192;-55
2023/03/17 03:21:42;;;;;;;0.43;0.43;;;;;;;4.64;78.12;95171.56;4387854;32;20241;-55
2023/03/17 03:24:08;;;;;;;1.40;1.40;;;;;;;4.77;77.72;95169.25;4393422;32;20288;-55
2023/03/17 03:26:33;;;;;;;0.60;0.60;;;;;;;4.76;77.61;95169.50;4377361;32;20207;-54
2023/03/17 03:28:59;;;;;;;1.43;1.33;;;;;;;4.65;78.05;95167.88;4372185;32;20252;-55
2023/03/17 03:31:25;;;;;;;0.97;0.97;;;;;;;4.53;78.53;95170.75;4377172;32;20196;-55
2023/03/17 03:33:51;;;;;;;0.60;0.60;;;;;;;4.55;78.45;95158.16;4391211;32;20224;-54
2023/03/17 03:36:17;;;;;;;0.80;0.80;;;;;;;4.69;78.19;95156.59;4390647;32;20290;-57
2023/03/17 03:38:42;;;;;;;0.70;0.70;;;;;;;4.51;78.04;95157.09;4385968;32;20192;-55
2023/03/17 03:41:08;;;;;;;1.53;1.53;;;;;;;4.54;78.24;95167.09;4393057;32;20192;-56
2023/03/17 03:43:34;;;;;;;0.73;0.73;;;;;;;4.64;78.25;95161.84;4390095;32;20197;-57
2023/03/17 03:45:59;;;;;;;1.17;1.17;;;;;;;4.87;77.05;95159.78;4365644;32;20259;-57
2023/03/17 03:48:25;;;;;;;0.87;0.87;;;;;;;4.87;76.86;95159.78;4371784;32;20219;-56
2023/03/17 03:50:55;;;;;;;0.40;0.40;;;;;;;4.89;76.95;95162.94;4369062;32;20238;-56
2023/03/17 03:53:22;;;;;;;0.70;0.70;;;;;;;4.74;76.97;95166.34;4369837;32;20238;-56
2023/03/17 03:55:47;;;;;;;1.00;1.00;;;;;;;4.71;77.71;95158.97;4373783;32;20293;-53
2023/03/17 03:58:12;;;;;;;0.60;0.60;;;;;;;4.67;77.59;95163.16;4376805;32;20280;-57
2023/03/17 04:00:38;;;;;;;0.40;0.40;;;;;;;4.79;77.27;95153.19;4376792;32;20184;-55
2023/03/17 04:03:04;;;;;;;0.73;0.73;;;;;;;4.84;76.89;95159.25;4385391;32;20252;-56
2023/03/17 04:05:29;;;;;;;3.50;0.80;;;;;;;4.78;77.09;95149.78;4373395;32;20263;-57
2023/03/17 04:07:54;;;;;;;0.63;0.63;;;;;;;4.61;77.59;95145.81;4390668;32;20215;-54
2023/03/17 04:10:20;;;;;;;1.10;0.97;;;;;;;4.62;77.63;95140.28;4388982;32;20228;-57
2023/03/17 04:12:45;;;;;;;0.70;0.70;;;;;;;4.74;77.01;95140.06;4387555;32;20255;-56
2023/03/17 04:15:15;;;;;;;1.40;1.27;;;;;;;4.68;77.88;95144.50;4369955;32;20192;-55
2023/03/17 04:17:40;;;;;;;1.60;1.60;;;;;;;4.70;77.05;95139.78;4377366;32;20228;-53
2023/03/17 04:20:08;;;;;;;0.77;0.70;;;;;;;4.80;77.20;95139.00;4389439;32;20294;-55
2023/03/17 04:22:33;;;;;;;0.77;0.77;;;;;;;4.67;77.23;95150.81;4380092;32;20183;-57
2023/03/17 04:24:58;;;;;;;1.27;1.27;;;;;;;4.63;77.61;95144.50;4387637;32;20389;-55
2023/03/17 04:27:24;;;;;;;0.50;0.50;;;;;;;4.80;76.59;95145.03;4384335;32;20203;-57
2023/03/17 04:29:49;;;;;;;1.30;0.70;;;;;;;4.67;77.12;95140.31;4367084;32;20285;-57
2023/03/17 04:32:14;;;;;;;2.70;1.23;;;;;;;4.75;76.95;95142.44;4392305;32;20176;-57
2023/03/17 04:34:41;;;;;;;1.10;1.00;;;;;;;4.74;76.88;95140.84;4386001;32;20244;-55
2023/03/17 04:37:07;;;;;;;1.07;1.07;;;;;;;4.75;76.40;95147.69;4387754;32;20188;-57
2023/03/17 04:39:33;;;;;;;0.87;0.70;;;;;;;4.99;75.66;95142.69;4392910;32;20280;-57
2023/03/17 04:41:58;;;;;;;0.97;0.97;;;;;;;5.20;74.78;95145.34;4379849;32;20363;-54
2023/03/17 04:44:23;;;;;;;1.33;1.23;;;;;;;5.11;74.94;95151.13;4393564;32;20261;-56
2023/03/17 04:46:49;;;;;;;0.77;0.77;;;;;;;5.27;74.08;95145.84;4391040;32;20248;-55
2023/03/17 04:49:14;;;;;;;0.50;0.50;;;;;;;5.14;74.45;95144.56;4394606;32;20243;-57
2023/03/17 04:51:40;;;;;;;0.90;0.90;;;;;;;5.28;74.12;95148.22;4379611;32;20224;-57
2023/03/17 04:54:05;;;;;;;0.43;0.43;;;;;;;5.33;73.69;95150.06;4379238;32;20191;-53
2023/03/17 04:56:31;;;;;;;1.03;1.00;;;;;;;5.30;74.08;95146.13;4376616;32;20180;-55
2023/03/17 04:58:57;;;;;;;0.40;0.40;;;;;;;5.31;74.08;95144.28;4374137;32;20299;-57
2023/03/17 05:01:22;;;;;;;1.00;1.00;;;;;;;5.07;74.55;95147.44;4368488;32;20252;-56
2023/03/17 05:03:48;;;;;;;0.60;0.60;;;;;;;4.99;75.12;95153.22;4376078;32;20188;-56
2023/03/17 05:06:13;;;;;;;0.90;0.90;;;;;;;5.19;74.13;95152.47;4390576;32;20193;-52
2023/03/17 05:08:38;;;;;;;1.00;1.00;;;;;;;5.14;74.30;95153.25;4378037;32;20184;-55
2023/03/17 05:11:04;;;;;;;0.83;0.83;;;;;;;4.91;75.53;95145.84;4389578;32;20259;-56
2023/03/17 05:13:29;;;;;;;1.20;1.20;;;;;;;5.10;74.66;95148.75;4390023;32;20252;-55
2023/03/17 05:15:55;;;;;;;1.33;0.80;;;;;;;5.15;74.17;95152.19;4388333;32;20285;-56
2023/03/17 05:18:24;;;;;;;1.10;1.03;;;;;;;4.96;75.12;95153.75;4375357;32;20234;-57
2023/03/17 05:20:49;;;;;;;0.97;0.97;;;;;;;5.06;74.82;95152.97;4391791;32;20227;-56
2023/03/17 05:23:14;;;;;;;0.87;0.87;;;;;;;5.25;73.92;95155.84;4392851;32;20399;-54
2023/03/17 05:25:40;;;;;;;0.60;0.60;;;;;;;5.23;73.44;95150.06;4388543;32;20232;-56
2023/03/17 05:28:06;;;;;;;4.03;0.90;;;;;;;5.27;73.40;95153.75;4380709;32;20196;-56
2023/03/17 05:30:32;;;;;;;0.57;0.57;;;;;;;5.24;73.57;95144.53;4378633;32;20193;-56
2023/03/17 05:32:58;;;;;;;0.53;0.53;;;;;;;5.08;74.54;95158.75;4378753;32;20307;-57
2023/03/17 05:35:24;;;;;;;0.33;0.33;;;;;;;5.09;74.35;95158.47;4378601;32;20367;-56
2023/03/17 05:37:49;;;;;;;0.30;0.30;;;;;;;5.20;73.64;95150.62;4378432;32;20222;-55
2023/03/17 05:40:15;;;;;;;1.43;1.00;;;;;;;5.11;73.95;95145.09;4389135;32;20203;-55
2023/03/17 05:42:41;;;;;;;0.73;0.73;;;;;;;5.21;73.64;95152.94;4389080;32;20276;-54
2023/03/17 05:45:07;;;;;;;0.60;0.60;;;;;;;5.33;72.87;95150.06;4380013;32;20188;-56
2023/03/17 05:47:33;;;;;;;0.80;0.80;;;;;;;5.47;72.17;95143.22;4391727;32;20280;-54
2023/03/17 05:49:59;;;;;;;1.90;1.33;;;;;;;5.24;72.73;95147.16;4381302;32;20276;-55
2023/03/17 05:52:25;;;;;;;0.80;0.80;;;;;;;5.21;72.99;95144.28;4378651;32;20189;-54
2023/03/17 05:54:51;;;;;;;1.00;1.00;;;;;;;5.18;72.97;95129.84;4392440;32;20334;-57
2023/03/17 05:57:17;;;;;;;0.30;0.30;;;;;;;5.21;72.41;95139.81;4378570;32;20235;-57
2023/03/17 05:59:42;;;;;;;0.87;0.73;;;;;;;5.37;72.61;95137.97;4392491;32;20216;-55
2023/03/17 06:02:10;;;;;;;0.60;0.60;;;;;;;5.18;73.02;95130.63;4377818;32;20208;-54
2023/03/17 06:04:35;;;;;;;0.60;0.60;;;;;;;5.24;73.19;95143.75;4385769;32;20237;-55
2023/03/17 06:07:01;;;;;;;0.53;0.53;;;;;;;5.39;72.70;95136.66;4387309;32;20276;-54
2023/03/17 06:09:26;;;;;;;0.30;0.30;;;;;;;5.50;71.91;95143.47;4378427;32;20203;-57
2023/03/17 06:11:52;;;;;;;0.90;0.90;;;;;;;5.55;71.92;95142.69;4378290;32;20213;-56
2023/03/17 06:14:18;;;;;;;0.90;0.90;;;;;;;5.62;71.67;95142.38;4391115;32;20188;-55
2023/03/17 06:16:43;;;;;;;0.60;0.60;;;;;;;5.65;71.67;95139.22;4379289;32;20259;-56
2023/03/17 06:19:09;;;;;;;0.20;0.20;;;;;;;5.62;71.91;95137.13;4380046;32;20288;-54
2023/03/17 06:21:34;;;;;;;0.53;0.53;;;;;;;5.51;72.37;95141.62;4375816;32;20184;-57
2023/03/17 06:23:59;;;;;;;0.50;0.50;;;;;;;5.56;71.71;95140.84;4391852;32;20263;-55
2023/03/17 06:26:26;;;;;;;0.60;0.60;;;;;;;5.52;72.04;95135.31;4390618;32;20327;-55
2023/03/17 06:28:51;;;;;;;0.70;0.70;;;;;;;5.34;72.48;95141.91;4377572;32;20269;-55
2023/03/17 06:31:16;;;;;;;1.20;1.10;;;;;;;5.50;71.95;95143.47;4377052;32;20316;-57
2023/03/17 06:33:42;;;;;;;0.50;0.50;;;;;;;5.42;72.08;95135.31;4392026;32;20211;-58
2023/03/17 06:36:08;;;;;;;1.77;1.67;;;;;;;5.44;72.59;95134.00;4376724;32;20200;-56
2023/03/17 06:38:33;;;;;;;0.70;0.70;;;;;;;5.60;71.40;95128.75;4376749;32;20231;-56
2023/03/17 06:40:58;;;;;;;1.33;1.13;;;;;;;5.37;72.19;95128.25;4377623;32;20200;-55
2023/03/17 06:43:24;;;;;;;0.67;0.67;;;;;;;5.43;72.38;95127.16;4391533;32;20218;-53
2023/03/17 06:45:51;;;;;;;0.77;0.77;;;;;;;5.57;71.86;95131.91;4367943;32;20200;-55
2023/03/17 06:48:16;;;;;;;4.23;0.83;;;;;;;5.60;71.75;95136.63;4391811;32;20203;-54
2023/03/17 06:50:42;;;;;;;0.70;0.70;;;;;;;5.52;72.15;95136.09;4391853;32;20284;-53
2023/03/17 06:53:07;;;;;;;1.53;1.50;;;;;;;5.63;71.42;95134.22;4379132;32;20225;-56
2023/03/17 06:55:32;;;;;;;0.83;0.83;;;;;;;5.64;71.58;95138.44;4388050;32;20188;-52
2023/03/17 06:57:59;;;;;;;0.83;0.83;;;;;;;5.77;71.47;95134.50;4377513;32;20219;-54
2023/03/17 07:00:26;;;;;;;0.83;0.83;;;;;;;5.86;70.98;95135.50;4390683;32;20215;-55
2023/03/17 07:02:51;;;;;;;0.70;0.70;;;;;;;5.81;70.96;95125.78;4391348;32;20318;-55
2023/03/17 07:05:17;;;;;;;0.87;0.87;;;;;;;5.92;70.79;95129.19;4381514;32;20290;-55
2023/03/17 07:07:43;;;;;;;1.20;1.13;;;;;;;5.99;70.63;95127.09;4380573;32;20203;-54
2023/03/17 07:10:12;;;;;;;0.50;0.50;;;;;;;5.99;70.79;95139.44;4369197;32;20185;-56
2023/03/17 07:12:38;;;;;;;2.43;2.20;;;;;;;6.14;69.80;95140.19;4372907;32;20199;-55
2023/03/17 07:15:04;;;;;;;23.23;0.90;;;;;;;6.11;69.78;95138.09;4376595;32;20292;-55
2023/03/17 07:17:29;;;;;;;0.73;0.73;;;;;;;5.99;70.14;95140.25;4376740;32;20248;-55
2023/03/17 07:19:55;;;;;;;0.30;0.30;;;;;;;5.94;70.34;95142.09;4391005;32;20199;-62
2023/03/17 07:22:21;;;;;;;0.60;0.60;;;;;;;8.18;100.00;95132.25;4377122;32;20207;-62
2023/03/17 07:24:47;;;;;;;1.83;1.00;;;;;;;9.34;93.23;95129.09;4376984;32;20195;-62
2023/03/17 07:27:16;;;;;;;1.13;1.13;;;;;;;10.41;75.50;95129.78;4372847;32;20233;-62
2023/03/17 07:29:41;;;;;;;0.50;0.50;;;;;;;11.11;66.67;95124.03;4370798;32;20346;-61
2023/03/17 07:32:11;;;;;;;3.20;1.80;;;;;;;11.21;62.37;95129.09;4389662;32;20283;-62
2023/03/17 07:34:37;;;;;;;0.80;0.80;;;;;;;12.00;59.61;95130.06;4371347;32;20254;-62
2023/03/17 07:37:03;;;;;;;0.80;0.80;;;;;;;11.82;57.91;95132.94;4367546;32;20192;-60
2023/03/17 07:39:28;;;;;;;1.60;1.53;;;;;;;12.11;56.37;95129.78;4372867;32;20225;-60
2023/03/17 07:41:54;;;;;;;0.20;0.20;;;;;;;12.27;57.60;95122.94;4389266;32;20192;-59
2023/03/17 07:44:23;;;;;;;2.20;1.37;;;;;;;12.17;54.19;95129.34;4387096;32;20223;-59
2023/03/17 07:46:50;;;;;;;0.50;0.50;;;;;;;12.43;54.56;95136.63;4383892;32;20279;-59
2023/03/17 07:49:16;;;;;;;1.93;0.87;;;;;;;12.42;53.96;95129.72;4370524;32;20199;-61
2023/03/17 07:51:42;;;;;;;0.53;0.53;;;;;;;12.59;53.46;95133.22;4371190;32;20231;-58
2023/03/17 07:54:10;;;;;;;1.73;0.97;;;;;;;12.00;50.22;95135.38;4390953;32;20181;-57
2023/03/17 07:56:37;;;;;;;3.50;0.93;;;;;;;11.07;51.19;95136.31;4387500;32;20204;-53
2023/03/17 07:59:02;;;;;;;3.60;1.43;;;;;;;9.75;53.96;95142.41;4388576;32;20287;-49
2023/03/17 08:01:29;;;;;;;1.10;1.10;;;;;;;9.45;55.26;95143.72;4375763;32;20197;-54
2023/03/17 08:03:55;;;;;;;0.80;0.80;;;;;;;9.08;56.75;95149.06;4374397;32;20185;-51
2023/03/17 08:06:24;;;;;;;1.03;1.03;;;;;;;8.94;57.89;95138.41;4374084;32;20211;-54
2023/03/17 08:08:50;;;;;;;1.23;1.00;;;;;;;8.80;57.87;95135.69;4371698;32;20230;-56
2023/03/17 08:11:16;;;;;;;1.40;1.30;;;;;;;8.95;57.71;95140.78;4387666;32;20184;-55
2023/03/17 08:13:42;;;;;;;2.50;1.53;;;;;;;8.94;57.32;95136.53;4372920;32;20227;-55
2023/03/17 08:16:08;;;;;;;1.30;1.20;;;;;;;8.98;57.97;95133.34;4375957;32;20232;-55
2023/03/17 08:18:35;;;;;;;1.17;1.17;;;;;;;9.05;58.60;95134.56;4372252;32;20229;-52
2023/03/17 08:21:01;;;;;;;3.50;1.67;;;;;;;8.94;58.90;95144.47;4387351;32;22066;-53
2023/03/17 08:23:26;;;;;;;0.93;0.93;;;;;;;9.23;58.04;95152.25;4375116;32;20185;-55
2023/03/17 08:25:56;;;;;;;1.33;1.23;;;;;;;9.28;57.14;95148.75;4390580;32;20246;-54
2023/03/17 08:28:22;;;;;;;1.27;1.17;;;;;;;9.29;56.57;95150.34;4386164;32;20224;-56
2023/03/17 08:30:48;;;;;;;0.93;0.93;;;;;;;9.30;56.97;95149.25;4371456;32;20188;-53
2023/03/17 08:33:13;;;;;;;0.80;0.80;;;;;;;9.32;57.62;95144.47;4391083;32;20193;-56
2023/03/17 08:35:42;;;;;;;0.70;0.70;;;;;;;9.64;55.77;95138.34;4390953;32;20208;-57
2023/03/17 08:38:11;;;;;;;0.83;0.83;;;;;;;9.91;55.81;95134.97;4374491;32;20198;-54
2023/03/17 08:40:37;;;;;;;0.87;0.87;;;;;;;9.74;55.71;95130.25;4376725;32;20252;-57
2023/03/17 08:43:03;;;;;;;1.23;1.13;;;;;;;10.28;55.74;95126.06;4377064;32;20196;-57
2023/03/17 08:45:29;;;;;;;1.07;1.07;;;;;;;10.30;54.58;95131.88;4387073;32;20184;-56
2023/03/17 08:47:54;;;;;;;1.00;0.90;;;;;;;10.19;53.32;95125.97;4377023;32;20271;-56
2023/03/17 08:50:22;;;;;;;0.50;0.50;;;;;;;10.42;53.30;95120.75;4382113;32;20211;-55
2023/03/17 08:52:48;;;;;;;0.63;0.37;;;;;;;10.32;52.96;95119.88;4390307;32;20263;-57
2023/03/17 08:55:15;;;;;;;0.37;0.37;;;;;;;10.40;52.52;95131.66;4371567;32;20188;-57
2023/03/17 08:57:41;;;;;;;0.60;0.57;;;;;;;10.38;52.53;95131.19;4378770;32;20207;-54
2023/03/17 09:00:10;;;;;;;1.73;0.60;;;;;;;10.50;52.45;95130.66;4390465;32;20223;-55
2023/03/17 09:02:41;;;;;;;0.97;0.80;;;;;;;10.31;53.35;95128.91;4388280;32;20180;-56
2023/03/17 09:05:09;;;;;;;3.83;1.00;;;;;;;10.52;52.64;95131.16;4389755;32;20223;-56
2023/03/17 09:07:34;;;;;;;9.10;1.17;;;;;;;10.37;52.82;95124.31;4388016;32;20192;-55
2023/03/17 09:10:02;;;;;;;1.73;1.40;;;;;;;10.49;51.88;95129.87;4379297;32;20215;-51
2023/03/17 09:12:28;;;;;;;0.60;0.60;;;;;;;10.39;51.65;95127.44;4390475;32;20177;-55
2023/03/17 09:14:55;;;;;;;0.43;0.43;;;;;;;10.32;51.77;95127.84;4391414;32;20246;-54
2023/03/17 09:17:20;;;;;;;2.53;1.13;;;;;;;10.21;52.09;95129.09;4377988;32;20263;-55
2023/03/17 09:19:46;;;;;;;1.13;0.80;;;;;;;10.51;52.10;95126.94;4378385;32;20193;-53
2023/03/17 09:22:14;;;;;;;0.30;0.30;;;;;;;10.67;52.12;95120.22;4378333;32;20231;-52
2023/03/17 09:24:39;;;;;;;0.97;0.90;;;;;;;10.79;52.06;95119.72;4394922;32;20192;-55
2023/03/17 09:27:05;;;;;;;0.27;0.27;;;;;;;10.84;52.28;95115.06;4386837;32;20215;-54
2023/03/17 09:29:30;;;;;;;0.43;0.43;;;;;;;10.93;51.75;95105.31;4375636;32;20193;-52
2023/03/17 09:31:55;;;;;;;0.60;0.60;;;;;;;11.09;51.73;95103.09;4392689;32;20195;-53
2023/03/17 09:35:14;;;;;;;1.07;1.07;;;;;;;11.17;51.42;95106.91;4390758;32;20232;-56
2023/03/17 09:37:39;;;;;;;0.80;0.80;;;;;;;11.23;50.01;95105.66;4369739;32;20196;-51
2023/03/17 09:40:07;;;;;;;0.47;0.47;;;;;;;11.27;50.23;95110.06;4383133;32;20202;-53
2023/03/17 09:42:52;;;;;;;0.93;0.73;;;;;;;11.39;49.45;95098.91;4387764;32;20180;-55
2023/03/17 09:45:30;;;;;;;0.33;0.20;;;;;;;11.40;49.96;95100.50;4392669;32;20269;-50
2023/03/17 09:48:14;;;;;;;1.37;0.40;;;;;;;11.53;49.39;95091.66;4390556;32;20188;-49
2023/03/17 09:50:48;;;;;;;0.20;0.20;;;;;;;11.52;50.20;95097.25;4389697;32;20184;-56
2023/03/17 09:53:45;;;;;;;0.93;0.47;;;;;;;11.66;49.11;95093.44;4371248;32;20213;-55
2023/03/17 09:56:15;;;;;;;0.80;0.80;;;;;;;11.55;49.91;95081.50;4384251;32;20189;-50
2023/03/17 09:58:48;;;;;;;0.80;0.80;;;;;;;11.67;49.78;95078.28;4390856;32;20193;-56
2023/03/17 10:01:14;;;;;;;0.43;0.43;;;;;;;11.92;48.32;95079.50;4370413;32;20287;-58
2023/03/17 10:03:39;;;;;;;0.23;0.23;;;;;;;11.87;48.56;95076.97;4376727;32;20188;-58
2023/03/17 10:06:37;;;;;;;0.23;0.23;;;;;;;11.99;47.37;95075.31;4359888;32;20261;-57
2023/03/17 10:09:30;;;;;;;0.50;0.50;;;;;;;12.09;47.89;95079.56;4371091;32;20189;-58
2023/03/17 10:12:34;;;;;;;0.63;0.50;;;;;;;12.19;46.17;95081.94;4382868;32;20196;-58
2023/03/17 10:15:05;;;;;;;0.40;0.40;;;;;;;12.28;46.16;95081.94;4378036;32;20204;-57
2023/03/17 10:17:35;;;;;;;0.57;0.40;;;;;;;12.26;46.38;95084.91;4378720;32;20196;-58
2023/03/17 10:20:04;;;;;;;0.33;0.30;;;;;;;12.30;46.14;95085.87;4374869;32;20193;-57
2023/03/17 10:22:41;;;;;;;0.37;0.37;;;;;;;12.26;46.83;95082.25;4387072;32;20197;-57
2023/03/17 10:25:34;;;;;;;0.40;0.40;;;;;;;12.48;45.75;95080.59;4391324;32;20255;-57
2023/03/17 10:28:21;;;;;;;0.03;0.03;;;;;;;12.30;46.98;95077.09;4386540;32;20260;-57
2023/03/17 10:30:46;;;;;;;2.93;0.87;;;;;;;12.45;46.10;95059.94;4379862;32;20264;-57
2023/03/17 10:33:12;;;;;;;0.20;0.20;;;;;;;12.60;45.90;95054.16;4366971;32;20239;-57
2023/03/17 10:35:38;;;;;;;1.20;0.47;;;;;;;12.74;44.85;95047.59;4381711;32;20207;-58
2023/03/17 10:38:33;;;;;;;5.30;1.23;;;;;;;12.73;45.73;95050.56;4370779;32;20180;-57
2023/03/17 10:41:04;;;;;;;0.80;0.57;;;;;;;12.87;44.94;95053.87;4381689;32;20207;-57
2023/03/17 10:43:36;;;;;;;0.60;0.60;;;;;;;12.95;45.29;95053.06;4373777;32;20256;-57
2023/03/17 10:46:04;;;;;;;0.10;0.10;;;;;;;12.89;45.68;95062.28;4387921;32;20320;-56
2023/03/17 10:48:35;;;;;;;0.20;0.20;;;;;;;12.93;47.15;95060.56;4389826;32;20211;-54
2023/03/17 10:51:06;;;;;;;0.30;0.30;;;;;;;13.04;45.97;95061.84;4377590;32;20267;-53
2023/03/17 10:53:37;;;;;;;0.20;0.20;;;;;;;13.06;49.80;95067.63;4373947;32;20274;-56
2023/03/17 10:56:24;;;;;;;0.97;0.50;;;;;;;13.17;48.81;95064.66;4376611;32;20188;-56
2023/03/17 10:58:51;;;;;;;0.40;0.40;;;;;;;13.34;48.79;95062.75;4386014;32;20184;-57
2023/03/17 11:01:40;;;;;;;1.67;0.60;;;;;;;13.74;46.85;95062.47;4377458;32;20234;-56
2023/03/17 11:04:29;;;;;;;0.47;0.47;;;;;;;13.89;45.31;95061.19;4350532;32;20185;-54
2023/03/17 11:06:56;;;;;;;2.23;0.50;;;;;;;13.79;45.28;95053.53;4362370;32;20181;-57
2023/03/17 11:09:22;;;;;;;0.47;0.47;;;;;;;13.75;46.26;95048.84;4377305;32;20220;-57
2023/03/17 11:12:00;;;;;;;0.43;0.43;;;;;;;13.86;46.23;95048.50;4371848;32;20261;-52
2023/03/17 11:14:28;;;;;;;0.20;0.20;;;;;;;14.02;45.37;95042.28;4367127;32;20188;-56
2023/03/17 11:17:02;;;;;;;0.23;0.23;;;;;;;14.04;44.46;95037.44;4390421;32;20218;-54
2023/03/17 11:19:52;;;;;;;0.50;0.50;;;;;;;14.03;44.60;95040.41;4375484;32;20179;-57
2023/03/17 11:22:36;;;;;;;0.30;0.30;;;;;;;14.10;43.45;95038.81;4341957;32;20204;-56
2023/03/17 11:25:13;;;;;;;1.03;0.93;;;;;;;14.11;43.73;95034.25;4363496;32;20330;-53
2023/03/17 11:28:03;;;;;;;0.30;0.30;;;;;;;14.09;44.61;95028.47;4367874;32;20184;-58
2023/03/17 11:30:40;;;;;;;0.40;0.40;;;;;;;14.06;44.84;95023.78;4367693;32;20230;-55
2023/03/17 11:33:23;;;;;;;0.43;0.40;;;;;;;14.21;44.38;95025.88;4391089;32;20202;-52
2023/03/17 11:36:16;;;;;;;0.57;0.47;;;;;;;14.23;46.22;95025.56;4376290;32;20241;-54
2023/03/17 11:38:45;;;;;;;0.20;0.20;;;;;;;14.19;45.19;95017.41;4367076;32;20203;-54
2023/03/17 11:41:19;;;;;;;0.60;0.60;;;;;;;14.27;45.64;95019.25;4377221;32;20203;-54
2023/03/17 11:43:58;;;;;;;0.87;0.80;;;;;;;14.23;46.07;95013.00;4373602;32;20260;-52
2023/03/17 11:46:41;;;;;;;0.60;0.60;;;;;;;14.42;46.30;95018.69;4379893;32;20226;-54